createdAt,value
2018-05-26T00:02:19.211Z,9.93
2018-05-26T00:04:46.726Z,9.10
2018-05-26T00:07:14.245Z,9.70
2018-05-26T00:09:42.514Z,9.50
2018-05-26T00:12:10.020Z,10.33
2018-05-26T00:14:37.524Z,8.70
2018-05-26T00:17:05.313Z,10.37
2018-05-26T00:19:32.847Z,10.50
2018-05-26T00:22:00.455Z,8.23
2018-05-26T00:24:29.149Z,8.63
2018-05-26T00:26:57.661Z,9.17
2018-05-26T00:29:25.430Z,9.57
2018-05-26T00:31:53.729Z,8.80
2018-05-26T00:34:22.036Z,9.03
2018-05-26T00:36:49.558Z,8.33
2018-05-26T00:39:17.097Z,8.57
2018-05-26T00:41:45.464Z,8.67
2018-05-26T00:44:12.974Z,10.70
2018-05-26T00:46:40.498Z,8.57
2018-05-26T00:49:08.015Z,9.27
2018-05-26T00:51:35.585Z,9.50
2018-05-26T00:54:03.167Z,9.93
2018-05-26T00:56:30.805Z,9.23
2018-05-26T00:58:58.341Z,9.57
2018-05-26T01:01:25.963Z,8.87
2018-05-26T01:03:53.517Z,9.43
2018-05-26T01:06:21.019Z,9.43
2018-05-26T01:08:48.577Z,9.07
2018-05-26T01:11:16.130Z,9.07
2018-05-26T01:13:43.675Z,9.70
2018-05-26T01:16:11.179Z,8.60
2018-05-26T01:18:38.730Z,8.43
2018-05-26T01:21:06.243Z,8.17
2018-05-26T01:23:34.125Z,8.37
2018-05-26T01:26:01.640Z,8.20
2018-05-26T01:28:29.176Z,9.30
2018-05-26T01:30:56.799Z,7.23
2018-05-26T01:33:24.311Z,9.00
2018-05-26T01:35:51.843Z,8.20
2018-05-26T01:38:19.347Z,6.50
2018-05-26T01:40:46.892Z,7.93
2018-05-26T01:43:14.446Z,8.10
2018-05-26T01:45:41.945Z,8.97
2018-05-26T01:48:09.495Z,8.67
2018-05-26T01:50:36.996Z,8.30
2018-05-26T01:53:04.511Z,7.63
2018-05-26T01:55:32.085Z,8.57
2018-05-26T01:57:59.708Z,8.77
2018-05-26T02:00:28.106Z,8.63
2018-05-26T02:02:55.699Z,9.67
2018-05-26T02:05:23.288Z,9.70
2018-05-26T02:07:51.588Z,7.83
2018-05-26T02:10:19.889Z,8.67
2018-05-26T02:12:47.479Z,9.13
2018-05-26T02:15:15.927Z,8.50
2018-05-26T02:17:43.478Z,6.80
2018-05-26T02:20:11.737Z,7.30
2018-05-26T02:22:39.246Z,7.20
2018-05-26T02:25:06.766Z,7.93
2018-05-26T02:27:34.312Z,7.17
2018-05-26T02:30:01.825Z,7.27
2018-05-26T02:32:29.378Z,6.40
2018-05-26T02:34:56.995Z,6.73
2018-05-26T02:37:24.550Z,7.97
2018-05-26T02:39:52.081Z,7.97
2018-05-26T02:42:19.611Z,7.13
2018-05-26T02:44:47.188Z,8.67
2018-05-26T02:47:14.708Z,8.63
2018-05-26T02:49:42.998Z,8.17
2018-05-26T02:52:11.293Z,8.73
2018-05-26T02:54:38.790Z,8.30
2018-05-26T02:57:07.063Z,8.07
2018-05-26T02:59:34.572Z,9.70
2018-05-26T03:02:02.892Z,9.93
2018-05-26T03:04:36.781Z,11.20
2018-05-26T03:07:09.982Z,11.20
2018-05-26T03:09:43.226Z,12.20
2018-05-26T03:12:16.528Z,12.27
2018-05-26T03:14:47.444Z,12.37
2018-05-26T03:20:19.719Z,12.33
2018-05-26T03:22:47.193Z,11.47
2018-05-26T03:25:14.738Z,10.50
2018-05-26T03:27:42.211Z,11.50
2018-05-26T03:30:09.694Z,10.00
2018-05-26T03:32:37.153Z,12.73
2018-05-26T03:35:05.401Z,11.50
2018-05-26T03:37:32.878Z,11.03
2018-05-26T03:40:00.378Z,12.20
2018-05-26T03:42:27.855Z,11.70
2018-05-26T03:44:55.389Z,11.27
2018-05-26T03:47:22.911Z,11.20
2018-05-26T03:49:50.393Z,12.30
2018-05-26T03:52:17.887Z,12.27
2018-05-26T03:55:09.111Z,11.63
2018-05-26T03:57:48.382Z,12.13
2018-05-26T04:00:15.894Z,12.03
2018-05-26T04:02:43.378Z,11.20
2018-05-26T04:05:10.845Z,11.37
2018-05-26T04:07:38.326Z,10.97
2018-05-26T04:10:05.810Z,10.10
2018-05-26T04:12:33.282Z,9.60
2018-05-26T04:15:00.779Z,10.17
2018-05-26T04:17:28.297Z,10.37
2018-05-26T04:19:55.785Z,11.57
2018-05-26T04:22:23.295Z,10.77
2018-05-26T04:24:51.537Z,10.93
2018-05-26T04:27:19.052Z,11.33
2018-05-26T04:29:46.528Z,12.37
2018-05-26T04:32:14.016Z,11.83
2018-05-26T04:34:41.486Z,12.40
2018-05-26T04:37:08.965Z,11.37
2018-05-26T04:39:36.442Z,11.50
2018-05-26T04:42:03.927Z,11.90
2018-05-26T04:44:32.170Z,10.37
2018-05-26T04:47:00.412Z,11.00
2018-05-26T04:49:28.825Z,9.77
2018-05-26T04:51:57.071Z,9.30
2018-05-26T04:54:25.359Z,8.73
2018-05-26T04:56:52.842Z,8.10
2018-05-26T04:59:20.306Z,9.27
2018-05-26T05:01:48.549Z,8.67
2018-05-26T05:04:16.041Z,8.77
2018-05-26T05:06:44.286Z,9.60
2018-05-26T05:09:12.522Z,9.47
2018-05-26T05:11:40.002Z,8.50
2018-05-26T05:14:08.240Z,9.33
2018-05-26T05:16:35.714Z,8.53
2018-05-26T05:19:03.945Z,9.03
2018-05-26T05:21:33.690Z,9.20
2018-05-26T05:24:01.158Z,10.07
2018-05-26T05:26:28.649Z,8.50
2018-05-26T05:28:56.178Z,8.03
2018-05-26T05:31:23.669Z,8.60
2018-05-26T05:33:51.143Z,7.97
2018-05-26T05:36:18.614Z,7.97
2018-05-26T05:38:46.092Z,7.90
2018-05-26T05:41:13.597Z,7.17
2018-05-26T05:43:41.079Z,6.60
2018-05-26T05:46:08.554Z,6.77
2018-05-26T05:48:36.793Z,7.40
2018-05-26T05:51:04.255Z,6.90
2018-05-26T05:53:31.738Z,7.17
2018-05-26T05:55:59.990Z,7.23
2018-05-26T05:58:27.661Z,6.83
2018-05-26T06:00:55.121Z,6.87
2018-05-26T06:03:22.591Z,6.83
2018-05-26T06:05:50.066Z,8.10
2018-05-26T06:08:17.530Z,7.87
2018-05-26T06:10:45.806Z,8.33
2018-05-26T06:13:13.466Z,8.70
2018-05-26T06:15:40.934Z,8.20
2018-05-26T06:18:08.411Z,8.90
2018-05-26T06:20:36.651Z,8.67
2018-05-26T06:23:04.127Z,9.13
2018-05-26T06:25:31.601Z,8.90
2018-05-26T06:27:59.863Z,9.00
2018-05-26T06:30:27.360Z,9.00
2018-05-26T06:32:54.830Z,8.93
2018-05-26T06:35:22.298Z,9.53
2018-05-26T06:37:49.773Z,9.33
2018-05-26T06:40:17.245Z,9.07
2018-05-26T06:42:44.739Z,9.73
2018-05-26T06:45:12.261Z,9.87
2018-05-26T06:47:40.457Z,9.30
2018-05-26T06:50:07.917Z,8.23
2018-05-26T06:52:35.403Z,8.77
2018-05-26T06:55:03.429Z,7.83
2018-05-26T06:57:31.114Z,9.13
2018-05-26T06:59:58.615Z,8.87
2018-05-26T07:02:26.161Z,9.17
2018-05-26T07:04:54.405Z,7.77
2018-05-26T07:07:22.637Z,8.80
2018-05-26T07:09:50.870Z,7.73
2018-05-26T07:12:18.341Z,9.47
2018-05-26T07:14:45.843Z,10.50
2018-05-26T07:17:13.330Z,9.13
2018-05-26T07:19:40.801Z,10.30
2018-05-26T07:22:08.291Z,10.03
2018-05-26T07:24:35.767Z,10.80
2018-05-26T07:27:03.249Z,10.30
2018-05-26T07:29:30.811Z,10.20
2018-05-26T07:31:58.345Z,8.87
2018-05-26T07:34:26.245Z,8.93
2018-05-26T07:36:54.489Z,7.83
2018-05-26T07:39:21.963Z,7.17
2018-05-26T07:41:50.204Z,7.00
2018-05-26T07:44:19.300Z,7.03
2018-05-26T07:46:46.773Z,7.00
2018-05-26T07:49:14.251Z,7.17
2018-05-26T07:51:41.717Z,6.27
2018-05-26T07:54:09.189Z,6.30
2018-05-26T07:56:37.282Z,6.70
2018-05-26T07:59:04.806Z,6.63
2018-05-26T08:01:32.279Z,6.73
2018-05-26T08:03:59.763Z,6.60
2018-05-26T08:06:27.273Z,6.57
2018-05-26T08:08:54.746Z,6.60
2018-05-26T08:11:22.266Z,6.73
2018-05-26T08:13:50.570Z,6.73
2018-05-26T08:16:19.506Z,6.20
2018-05-26T08:18:46.961Z,6.50
2018-05-26T08:21:14.440Z,6.67
2018-05-26T08:23:41.905Z,7.43
2018-05-26T08:26:09.405Z,7.10
2018-05-26T08:28:36.887Z,7.17
2018-05-26T08:31:04.879Z,7.07
2018-05-26T08:33:33.225Z,6.73
2018-05-26T08:36:00.686Z,6.80
2018-05-26T08:38:28.187Z,6.00
2018-05-26T08:40:55.726Z,6.83
2018-05-26T08:43:23.201Z,6.23
2018-05-26T08:45:50.692Z,7.03
2018-05-26T08:48:18.937Z,6.77
2018-05-26T08:50:47.197Z,6.43
2018-05-26T08:53:15.453Z,6.87
2018-05-26T08:55:42.913Z,5.60
2018-05-26T08:58:10.393Z,6.47
2018-05-26T09:00:37.845Z,5.70
2018-05-26T09:03:06.096Z,6.33
2018-05-26T09:05:34.318Z,5.57
2018-05-26T09:08:01.798Z,4.80
2018-05-26T09:10:29.348Z,6.93
2018-05-26T09:12:56.884Z,5.03
2018-05-26T09:15:24.417Z,4.27
2018-05-26T09:17:51.902Z,4.73
2018-05-26T09:20:19.361Z,4.40
2018-05-26T09:22:46.837Z,4.63
2018-05-26T09:25:17.550Z,4.97
2018-05-26T09:27:45.051Z,4.03
2018-05-26T09:30:12.560Z,4.37
2018-05-26T09:32:40.769Z,4.40
2018-05-26T09:35:08.241Z,4.27
2018-05-26T09:37:36.951Z,3.97
2018-05-26T09:40:04.445Z,4.00
2018-05-26T09:42:31.964Z,4.40
2018-05-26T09:44:59.580Z,4.53
2018-05-26T09:47:28.691Z,4.30
2018-05-26T09:49:58.025Z,4.73
2018-05-26T09:52:25.546Z,4.47
2018-05-26T09:54:53.058Z,5.23
2018-05-26T09:57:20.548Z,5.00
2018-05-26T09:59:49.022Z,5.10
2018-05-26T10:02:16.519Z,5.40
2018-05-26T10:04:44.891Z,4.43
2018-05-26T10:07:12.353Z,4.20
2018-05-26T10:09:40.691Z,3.80
2018-05-26T10:12:11.783Z,3.43
2018-05-26T10:14:39.247Z,4.30
2018-05-26T10:17:06.817Z,4.63
2018-05-26T10:19:35.351Z,3.33
2018-05-26T10:22:02.963Z,2.97
2018-05-26T10:24:31.302Z,3.53
2018-05-26T10:26:58.996Z,2.97
2018-05-26T10:29:27.387Z,3.60
2018-05-26T10:31:54.939Z,3.50
2018-05-26T10:34:27.655Z,3.17
2018-05-26T10:36:55.131Z,3.10
2018-05-26T10:39:23.422Z,2.90
2018-05-26T10:41:54.629Z,3.33
2018-05-26T10:44:22.118Z,3.90
2018-05-26T10:46:49.581Z,3.50
2018-05-26T10:49:17.247Z,2.83
2018-05-26T10:51:44.753Z,2.50
2018-05-26T10:54:12.251Z,2.27
2018-05-26T10:56:48.110Z,2.50
2018-05-26T10:59:16.943Z,2.60
2018-05-26T11:01:57.014Z,2.57
2018-05-26T11:04:25.394Z,2.20
2018-05-26T11:06:57.378Z,1.73
2018-05-26T11:09:29.158Z,2.33
2018-05-26T11:11:57.915Z,2.37
2018-05-26T11:14:27.509Z,2.37
2018-05-26T11:16:59.317Z,1.80
2018-05-26T11:19:28.007Z,1.80
2018-05-26T11:21:56.348Z,2.10
2018-05-26T11:24:23.997Z,2.10
2018-05-26T11:26:51.417Z,1.70
2018-05-26T11:29:18.914Z,1.57
2018-05-26T11:31:46.438Z,1.80
2018-05-26T11:34:13.963Z,1.90
2018-05-26T11:36:42.468Z,1.50
2018-05-26T11:39:18.350Z,1.80
2018-05-26T11:41:57.075Z,1.80
2018-05-26T11:44:24.607Z,1.83
2018-05-26T11:46:52.108Z,1.30
2018-05-26T11:49:19.610Z,1.70
2018-05-26T11:51:47.119Z,1.90
2018-05-26T11:54:15.388Z,1.40
2018-05-26T11:56:43.683Z,1.90
2018-05-26T11:59:11.206Z,2.00
2018-05-26T12:01:38.797Z,1.63
2018-05-26T12:04:07.064Z,1.77
2018-05-26T12:06:34.603Z,2.20
2018-05-26T12:09:02.972Z,2.20
2018-05-26T12:11:30.492Z,2.40
2018-05-26T12:14:01.988Z,2.17
2018-05-26T12:16:29.596Z,2.10
2018-05-26T12:18:57.206Z,2.30
2018-05-26T12:21:27.578Z,2.37
2018-05-26T12:23:55.157Z,1.80
2018-05-26T12:26:22.807Z,1.90
2018-05-26T12:28:50.537Z,1.87
2018-05-26T12:31:18.116Z,2.17
2018-05-26T12:33:49.244Z,2.10
2018-05-26T12:36:18.714Z,2.00
2018-05-26T12:38:48.427Z,2.17
2018-05-26T12:41:17.940Z,1.67
2018-05-26T12:43:45.458Z,1.90
2018-05-26T12:46:13.016Z,1.43
2018-05-26T12:48:41.390Z,2.07
2018-05-26T12:51:08.951Z,1.80
2018-05-26T12:53:36.686Z,1.87
2018-05-26T12:56:07.118Z,2.10
2018-05-26T12:58:35.330Z,1.97
2018-05-26T13:01:02.891Z,2.07
2018-05-26T13:03:30.617Z,2.50
2018-05-26T13:05:58.350Z,4.03
2018-05-26T13:08:26.117Z,2.27
2018-05-26T13:10:53.708Z,2.13
2018-05-26T13:13:21.316Z,2.93
2018-05-26T13:15:48.819Z,3.07
2018-05-26T13:18:16.354Z,2.40
2018-05-26T13:20:48.198Z,1.93
2018-05-26T13:23:15.694Z,2.03
2018-05-26T13:25:43.988Z,1.80
2018-05-26T13:28:14.307Z,1.83
2018-05-26T13:30:41.815Z,1.87
2018-05-26T13:33:09.315Z,2.07
2018-05-26T13:35:36.969Z,2.13
2018-05-26T13:38:06.502Z,1.97
2018-05-26T13:40:34.115Z,2.40
2018-05-26T13:43:02.420Z,2.13
2018-05-26T13:45:30.830Z,1.93
2018-05-26T13:47:59.174Z,1.97
2018-05-26T13:50:26.908Z,1.93
2018-05-26T13:52:54.572Z,2.17
2018-05-26T13:55:25.359Z,1.50
2018-05-26T13:57:53.019Z,2.10
2018-05-26T14:00:20.523Z,2.30
2018-05-26T14:02:48.152Z,1.70
2018-05-26T14:05:15.685Z,1.83
2018-05-26T14:07:43.191Z,2.00
2018-05-26T14:10:10.750Z,1.70
2018-05-26T14:12:38.306Z,2.20
2018-05-26T14:15:05.794Z,1.90
2018-05-26T14:17:33.380Z,1.70
2018-05-26T14:20:01.031Z,2.00
2018-05-26T14:22:29.843Z,1.90
2018-05-26T14:24:58.429Z,1.70
2018-05-26T14:27:26.291Z,1.97
2018-05-26T14:29:53.855Z,1.57
2018-05-26T14:32:21.366Z,2.00
2018-05-26T14:34:48.883Z,2.00
2018-05-26T14:37:16.399Z,2.10
2018-05-26T14:39:43.897Z,2.47
2018-05-26T14:42:13.360Z,2.00
2018-05-26T14:44:41.590Z,2.00
2018-05-26T14:47:09.081Z,2.03
2018-05-26T14:49:36.689Z,2.20
2018-05-26T14:52:05.070Z,2.00
2018-05-26T14:54:32.723Z,2.23
2018-05-26T14:57:00.471Z,1.70
2018-05-26T14:59:28.085Z,2.07
2018-05-26T15:01:56.491Z,1.97
2018-05-26T15:04:24.843Z,2.20
2018-05-26T15:06:57.694Z,1.90
2018-05-26T15:09:26.321Z,1.93
2018-05-26T15:11:56.042Z,1.80
2018-05-26T15:14:27.907Z,2.27
2018-05-26T15:16:55.515Z,2.30
2018-05-26T15:19:28.156Z,2.40
2018-05-26T15:21:56.005Z,2.13
2018-05-26T15:24:28.554Z,2.20
2018-05-26T15:26:57.070Z,2.30
2018-05-26T15:29:24.758Z,2.37
2018-05-26T15:31:52.242Z,1.87
2018-05-26T15:34:19.828Z,2.13
2018-05-26T15:36:47.402Z,2.10
2018-05-26T15:39:15.942Z,2.50
2018-05-26T15:41:43.459Z,1.80
2018-05-26T15:44:11.006Z,2.10
2018-05-26T15:46:38.514Z,2.10
2018-05-26T15:49:06.086Z,2.07
2018-05-26T15:51:33.791Z,2.37
2018-05-26T15:54:02.226Z,3.90
2018-05-26T15:56:34.536Z,3.30
2018-05-26T15:59:04.673Z,2.67
2018-05-26T16:01:33.211Z,2.20
2018-05-26T16:04:01.081Z,1.70
2018-05-26T16:06:28.831Z,2.67
2018-05-26T16:08:57.987Z,2.20
2018-05-26T16:11:25.755Z,2.37
2018-05-26T16:13:53.436Z,2.33
2018-05-26T16:16:28.372Z,2.43
2018-05-26T16:18:58.170Z,2.60
2018-05-26T16:21:27.494Z,2.10
2018-05-26T16:23:58.801Z,2.80
2018-05-26T16:26:27.563Z,2.90
2018-05-26T16:28:57.688Z,2.90
2018-05-26T16:31:29.303Z,3.57
2018-05-26T16:33:58.102Z,3.00
2018-05-26T16:36:26.382Z,2.60
2018-05-26T16:38:53.958Z,3.17
2018-05-26T16:41:21.524Z,4.80
2018-05-26T16:43:49.018Z,3.00
2018-05-26T16:46:16.540Z,2.53
2018-05-26T16:48:44.082Z,2.47
2018-05-26T16:51:11.603Z,2.63
2018-05-26T16:53:39.122Z,3.20
2018-05-26T16:56:06.726Z,2.80
2018-05-26T16:58:34.375Z,2.80
2018-05-26T17:01:02.945Z,2.80
2018-05-26T17:03:30.761Z,3.20
2018-05-26T17:05:58.734Z,2.67
2018-05-26T17:08:27.521Z,3.00
2018-05-26T17:10:55.105Z,2.07
2018-05-26T17:13:22.609Z,2.30
2018-05-26T17:15:50.120Z,2.80
2018-05-26T17:18:18.453Z,2.40
2018-05-26T17:20:46.060Z,2.87
2018-05-26T17:23:25.027Z,2.30
2018-05-26T17:25:52.715Z,2.50
2018-05-26T17:28:21.002Z,2.43
2018-05-26T17:30:59.063Z,2.60
2018-05-26T17:33:28.540Z,2.57
2018-05-26T17:35:57.404Z,2.40
2018-05-26T17:38:24.937Z,2.67
2018-05-26T17:40:58.801Z,2.87
2018-05-26T17:43:26.672Z,3.00
2018-05-26T17:45:58.005Z,2.73
2018-05-26T17:48:25.959Z,3.00
2018-05-26T17:50:53.570Z,2.97
2018-05-26T17:53:21.110Z,2.97
2018-05-26T17:55:48.634Z,2.90
2018-05-26T17:58:16.178Z,3.03
2018-05-26T18:00:43.741Z,3.73
2018-05-26T18:03:11.266Z,4.77
2018-05-26T18:05:38.808Z,5.40
2018-05-26T18:08:07.076Z,5.87
2018-05-26T18:10:34.636Z,5.33
2018-05-26T18:13:03.166Z,4.47
2018-05-26T18:15:30.800Z,4.87
2018-05-26T18:17:58.463Z,4.73
2018-05-26T18:20:26.978Z,4.03
2018-05-26T18:22:54.631Z,3.40
2018-05-26T18:25:22.179Z,2.53
2018-05-26T18:27:49.692Z,2.63
2018-05-26T18:30:17.206Z,2.70
2018-05-26T18:32:44.716Z,3.00
2018-05-26T18:35:12.300Z,2.80
2018-05-26T18:37:39.817Z,2.83
2018-05-26T18:40:07.373Z,3.00
2018-05-26T18:42:35.096Z,3.20
2018-05-26T18:45:02.613Z,2.87
2018-05-26T18:47:31.178Z,3.60
2018-05-26T18:49:58.886Z,3.30
2018-05-26T18:52:28.626Z,3.27
2018-05-26T18:54:56.420Z,3.20
2018-05-26T18:57:27.681Z,3.60
2018-05-26T18:59:55.238Z,3.37
2018-05-26T19:02:28.002Z,3.23
2018-05-26T19:04:55.555Z,3.57
2018-05-26T19:07:29.427Z,2.87
2018-05-26T19:09:58.220Z,3.23
2018-05-26T19:12:26.675Z,3.30
2018-05-26T19:14:54.247Z,3.33
2018-05-26T19:17:22.559Z,3.50
2018-05-26T19:20:05.055Z,3.47
2018-05-26T19:22:34.359Z,3.50
2018-05-26T19:25:02.021Z,3.57
2018-05-26T19:27:29.743Z,4.40
2018-05-26T19:29:57.409Z,3.50
2018-05-26T19:32:25.039Z,4.27
2018-05-26T19:34:52.578Z,4.10
2018-05-26T19:37:20.146Z,3.40
2018-05-26T19:39:48.411Z,3.40
2018-05-26T19:42:19.708Z,4.00
2018-05-26T19:44:47.287Z,4.13
2018-05-26T19:47:14.782Z,4.17
2018-05-26T19:49:42.521Z,4.67
2018-05-26T19:52:23.910Z,3.90
2018-05-26T19:54:52.174Z,3.23
2018-05-26T19:57:19.747Z,3.43
2018-05-26T19:59:47.271Z,3.87
2018-05-26T20:02:15.580Z,3.60
2018-05-26T20:04:43.842Z,3.57
2018-05-26T20:07:11.361Z,4.13
2018-05-26T20:09:39.687Z,3.70
2018-05-26T20:12:07.198Z,4.00
2018-05-26T20:14:34.885Z,3.77
2018-05-26T20:17:02.514Z,3.60
2018-05-26T20:19:30.230Z,4.37
2018-05-26T20:21:59.080Z,4.17
2018-05-26T20:24:26.731Z,4.10
2018-05-26T20:26:57.922Z,4.67
2018-05-26T20:29:27.684Z,4.80
2018-05-26T20:31:55.219Z,4.07
2018-05-26T20:34:22.766Z,4.53
2018-05-26T20:36:50.387Z,4.10
2018-05-26T20:39:18.661Z,3.97
2018-05-26T20:41:46.241Z,4.00
2018-05-26T20:44:13.746Z,4.73
2018-05-26T20:46:41.251Z,4.33
2018-05-26T20:49:09.785Z,4.40
2018-05-26T20:51:37.349Z,4.60
2018-05-26T20:54:04.973Z,4.47
2018-05-26T20:56:32.634Z,4.67
2018-05-26T20:59:00.403Z,4.30
2018-05-26T21:01:28.043Z,5.80
2018-05-26T21:03:55.691Z,4.90
2018-05-26T21:06:23.270Z,5.20
2018-05-26T21:08:50.820Z,5.57
2018-05-26T21:11:18.325Z,7.63
2018-05-26T21:13:45.817Z,5.60
2018-05-26T21:16:13.332Z,6.20
2018-05-26T21:18:40.860Z,5.97
2018-05-26T21:21:09.163Z,6.10
2018-05-26T21:23:37.069Z,5.57
2018-05-26T21:26:07.912Z,6.33
2018-05-26T21:28:35.462Z,5.97
2018-05-26T21:31:03.800Z,5.63
2018-05-26T21:33:31.651Z,5.67
2018-05-26T21:35:59.454Z,6.17
2018-05-26T21:38:27.262Z,5.97
2018-05-26T21:40:54.839Z,5.30
2018-05-26T21:43:23.236Z,4.93
2018-05-26T21:45:50.814Z,5.03
2018-05-26T21:48:18.371Z,5.10
2018-05-26T21:50:45.895Z,4.90
2018-05-26T21:53:14.841Z,5.27
2018-05-26T21:55:42.306Z,5.43
2018-05-26T21:58:09.811Z,5.23
2018-05-26T22:00:37.292Z,4.60
2018-05-26T22:03:04.797Z,5.00
2018-05-26T22:05:33.102Z,5.70
2018-05-26T22:08:00.779Z,5.23
2018-05-26T22:10:29.390Z,5.80
2018-05-26T22:12:57.993Z,5.23
2018-05-26T22:15:26.309Z,5.13
2018-05-26T22:17:54.699Z,5.13
2018-05-26T22:20:22.161Z,5.93
2018-05-26T22:22:49.671Z,5.47
2018-05-26T22:25:17.182Z,4.97
2018-05-26T22:27:44.660Z,5.40
2018-05-26T22:30:12.126Z,5.37
2018-05-26T22:32:39.597Z,5.37
2018-05-26T22:35:07.061Z,5.80
2018-05-26T22:37:34.675Z,5.93
2018-05-26T22:40:02.225Z,6.07
2018-05-26T22:42:29.797Z,5.67
2018-05-26T22:44:57.365Z,5.33
2018-05-26T22:47:25.633Z,5.63
2018-05-26T22:49:53.122Z,4.83
2018-05-26T22:52:20.625Z,6.40
2018-05-26T22:54:48.158Z,5.33
2018-05-26T22:57:15.654Z,5.73
2018-05-26T22:59:43.119Z,5.57
2018-05-26T23:02:11.355Z,5.67
2018-05-26T23:04:38.831Z,5.53
2018-05-26T23:07:06.314Z,6.23
2018-05-26T23:09:33.829Z,5.80
2018-05-26T23:12:01.487Z,5.93
2018-05-26T23:14:29.485Z,4.77
2018-05-26T23:16:57.090Z,5.63
2018-05-26T23:19:24.592Z,5.00
2018-05-26T23:21:52.054Z,5.10
2018-05-26T23:24:19.594Z,5.33
2018-05-26T23:26:47.182Z,5.57
2018-05-26T23:29:14.711Z,5.50
2018-05-26T23:31:42.170Z,6.33
2018-05-26T23:34:09.654Z,5.70
2018-05-26T23:36:37.123Z,6.27
2018-05-26T23:39:05.375Z,5.90
2018-05-26T23:41:32.873Z,5.83
2018-05-26T23:44:00.496Z,7.40
2018-05-26T23:46:28.861Z,6.83
2018-05-26T23:48:56.478Z,6.67
2018-05-26T23:51:24.126Z,7.07
2018-05-26T23:53:51.605Z,6.10
2018-05-26T23:56:19.085Z,7.47
2018-05-26T23:58:46.578Z,6.83
